Time;durP1;ratioP1;P1;durP2;ratioP2;P2;SDS_P1;SDS_P2;PMS_P1;PMS_P2;Temp;Humidity;BMP_temperature;BMP_pressure;BME280_temperature;BME280_humidity;BME280_pressure;Samples;Min_cycle;Max_cycle;Signal;HPM_P1;HPM_P2
2022/10/03 00:01:55;;;;;;;19.27;3.10;;;11.00;1.00;;;;;;5084533;28;20504;-47
2022/10/03 00:04:27;;;;;;;24.77;3.67;;;11.00;1.00;;;;;;5084405;28;20508;-47
2022/10/03 00:07:01;;;;;;;17.67;3.30;;;11.00;1.00;;;;;;5087506;28;20496;-48
2022/10/03 00:09:47;;;;;;;20.67;3.13;;;10.90;1.00;;;;;;5084757;28;20513;-47
2022/10/03 00:12:41;;;;;;;19.47;3.17;;;10.90;1.00;;;;;;5087132;28;20447;-47
2022/10/03 00:15:20;;;;;;;18.00;2.70;;;10.90;1.00;;;;;;5088691;28;20831;-47
2022/10/03 00:17:49;;;;;;;17.30;2.37;;;10.90;1.00;;;;;;5087183;28;20446;-47
2022/10/03 00:20:39;;;;;;;13.00;2.80;;;10.90;1.00;;;;;;5088426;28;20434;-47
2022/10/03 00:23:20;;;;;;;27.23;4.83;;;10.90;1.00;;;;;;5087113;28;20503;-47
2022/10/03 00:25:54;;;;;;;19.27;2.83;;;10.90;1.00;;;;;;5088478;28;20552;-47
2022/10/03 00:28:52;;;;;;;17.97;2.90;;;10.90;1.00;;;;;;5088734;28;20434;-48
2022/10/03 00:31:36;;;;;;;21.10;2.93;;;11.00;1.00;;;;;;5027348;28;21404;-48
2022/10/03 00:34:25;;;;;;;13.43;3.43;;;11.00;1.00;;;;;;5089109;28;20488;-48
2022/10/03 00:37:18;;;;;;;19.23;3.10;;;11.00;1.00;;;;;;5056973;28;20504;-48
2022/10/03 00:39:52;;;;;;;24.60;3.23;;;11.00;1.00;;;;;;5081843;28;20438;-47
2022/10/03 00:42:42;;;;;;;16.90;3.20;;;11.10;1.00;;;;;;5088741;28;20932;-48
2022/10/03 00:45:43;;;;;;;13.73;2.37;;;11.10;1.00;;;;;;5088242;28;20435;-48
2022/10/03 00:48:47;;;;;;;12.10;2.70;;;11.20;1.00;;;;;;5064394;28;21161;-48
2022/10/03 00:51:34;;;;;;;13.67;2.80;;;11.20;1.00;;;;;;5078387;28;20470;-47
2022/10/03 00:54:36;;;;;;;14.43;2.97;;;11.30;1.00;;;;;;5082760;28;20446;-48
2022/10/03 00:57:13;;;;;;;16.83;2.90;;;11.30;1.00;;;;;;5087815;28;20449;-48
2022/10/03 01:00:07;;;;;;;16.73;2.90;;;11.30;1.00;;;;;;5086606;28;20804;-48
2022/10/03 01:02:36;;;;;;;16.50;2.77;;;11.40;1.00;;;;;;5087109;28;20459;-54
2022/10/03 01:05:05;;;;;;;16.67;2.50;;;11.30;1.00;;;;;;5087257;28;21065;-48
2022/10/03 01:08:18;;;;;;;27.00;3.63;;;11.30;1.00;;;;;;5089655;28;20776;-48
2022/10/03 01:10:59;;;;;;;24.10;3.23;;;11.30;1.00;;;;;;5041635;28;20468;-52
2022/10/03 01:14:01;;;;;;;24.47;3.33;;;11.30;1.00;;;;;;5088953;28;20418;-48
2022/10/03 01:16:42;;;;;;;14.50;2.20;;;11.30;1.00;;;;;;5088264;28;21048;-48
2022/10/03 01:19:07;;;;;;;14.73;2.90;;;11.40;1.00;;;;;;5084752;28;20477;-48
2022/10/03 01:21:33;;;;;;;14.20;2.60;;;11.40;1.00;;;;;;5093877;28;20924;-49
2022/10/03 01:24:20;;;;;;;13.67;2.20;;;11.40;1.00;;;;;;5090853;28;20209;-48
2022/10/03 01:26:49;;;;;;;16.57;2.60;;;11.40;1.00;;;;;;5091089;28;20216;-48
2022/10/03 01:32:24;;;;;;;24.10;3.50;;;11.40;1.00;;;;;;5093309;28;20438;-48
2022/10/03 01:35:26;;;;;;;18.30;2.40;;;11.40;1.00;;;;;;5088322;28;20527;-48
2022/10/03 01:38:03;;;;;;;12.00;2.60;;;11.40;1.00;;;;;;5091163;28;20437;-48
2022/10/03 01:40:43;;;;;;;17.53;2.83;;;11.50;1.00;;;;;;5091946;28;21212;-47
2022/10/03 01:43:31;;;;;;;17.40;2.60;;;11.50;1.00;;;;;;5092061;28;20869;-48
2022/10/03 01:46:16;;;;;;;11.33;2.00;;;11.40;1.00;;;;;;5092663;28;20517;-46
2022/10/03 01:49:06;;;;;;;20.10;2.67;;;11.40;1.00;;;;;;5093156;28;20480;-48
2022/10/03 01:51:55;;;;;;;17.07;2.50;;;11.30;1.00;;;;;;5086218;28;20493;-45
2022/10/03 01:54:29;;;;;;;19.30;2.70;;;11.20;1.00;;;;;;5084957;28;20423;-45
2022/10/03 01:57:20;;;;;;;21.70;2.50;;;11.20;1.00;;;;;;5093303;28;20934;-50
2022/10/03 02:00:07;;;;;;;14.70;2.87;;;11.20;1.00;;;;;;5077953;28;20524;-45
2022/10/03 02:02:39;;;;;;;18.23;2.10;;;11.10;1.00;;;;;;5086268;28;20524;-45
2022/10/03 02:05:34;;;;;;;12.90;2.40;;;11.10;1.00;;;;;;5091687;28;20452;-45
2022/10/03 02:08:37;;;;;;;17.80;3.20;;;11.00;1.00;;;;;;5089039;28;20438;-44
2022/10/03 02:11:07;;;;;;;29.23;3.17;;;11.00;1.00;;;;;;5096213;28;20427;-45
2022/10/03 02:13:49;;;;;;;17.23;2.77;;;11.00;1.00;;;;;;5085285;28;20985;-44
2022/10/03 02:16:14;;;;;;;14.23;2.50;;;11.00;1.00;;;;;;5092981;28;20900;-45
2022/10/03 02:19:24;;;;;;;15.80;2.27;;;11.00;1.00;;;;;;5092135;28;20446;-44
2022/10/03 02:21:53;;;;;;;32.53;3.63;;;11.00;1.00;;;;;;5010947;28;20204;-45
2022/10/03 02:24:45;;;;;;;15.27;2.50;;;10.90;1.00;;;;;;5018645;28;20462;-45
2022/10/03 02:27:29;;;;;;;13.57;2.53;;;10.90;1.00;;;;;;5075700;28;20442;-45
2022/10/03 02:30:08;;;;;;;15.70;2.57;;;10.90;1.00;;;;;;5091765;28;20419;-45
2022/10/03 02:33:04;;;;;;;16.97;2.60;;;10.90;1.00;;;;;;5091574;28;20443;-45
2022/10/03 02:36:04;;;;;;;14.57;3.00;;;10.90;1.00;;;;;;5091608;28;20435;-45
2022/10/03 02:38:47;;;;;;;17.33;3.37;;;10.80;1.00;;;;;;5090879;28;20510;-45
2022/10/03 02:41:23;;;;;;;17.60;2.20;;;10.80;1.00;;;;;;5092213;28;20480;-44
2022/10/03 02:44:33;;;;;;;25.53;2.80;;;10.70;1.00;;;;;;5089218;28;20936;-45
2022/10/03 02:47:32;;;;;;;17.83;2.90;;;10.70;1.00;;;;;;5085778;28;20415;-44
2022/10/03 02:50:18;;;;;;;16.87;2.37;;;10.70;1.00;;;;;;5091999;28;20426;-45
2022/10/03 02:52:49;;;;;;;20.90;2.57;;;10.70;1.00;;;;;;5090268;28;22103;-44
2022/10/03 02:55:53;;;;;;;18.90;3.03;;;10.70;1.00;;;;;;5092267;28;20427;-45
2022/10/03 02:58:47;;;;;;;15.93;2.43;;;10.70;1.00;;;;;;5086219;28;20435;-45
2022/10/03 03:01:24;;;;;;;17.50;2.97;;;10.60;1.00;;;;;;5092614;28;21079;-45
2022/10/03 03:04:22;;;;;;;17.73;2.37;;;10.70;1.00;;;;;;5091241;28;20482;-45
2022/10/03 03:07:09;;;;;;;15.80;2.50;;;10.60;1.00;;;;;;5090651;28;20916;-45
2022/10/03 03:09:57;;;;;;;13.40;2.60;;;10.60;1.00;;;;;;5089796;28;20435;-45
2022/10/03 03:12:37;;;;;;;14.73;2.90;;;10.50;1.00;;;;;;5091027;28;20515;-45
2022/10/03 03:15:45;;;;;;;21.03;2.60;;;10.60;1.00;;;;;;5085153;28;20482;-44
2022/10/03 03:18:33;;;;;;;11.10;2.03;;;10.60;1.00;;;;;;5090844;28;20419;-44
2022/10/03 03:21:08;;;;;;;25.17;2.73;;;10.50;1.00;;;;;;5092279;28;20432;-45
2022/10/03 03:23:48;;;;;;;8.20;2.50;;;10.50;1.00;;;;;;5091044;28;20862;-45
2022/10/03 03:26:22;;;;;;;16.03;1.87;;;10.40;1.00;;;;;;5083757;28;20423;-45
2022/10/03 03:29:05;;;;;;;12.00;2.40;;;10.40;1.00;;;;;;5088272;28;20426;-45
2022/10/03 03:31:59;;;;;;;10.07;2.17;;;10.40;1.00;;;;;;5090398;28;20458;-45
2022/10/03 03:34:49;;;;;;;18.20;2.30;;;10.40;1.00;;;;;;5091824;28;20587;-45
2022/10/03 03:37:28;;;;;;;6.63;2.07;;;10.40;1.00;;;;;;5090791;28;20446;-45
2022/10/03 03:40:00;;;;;;;12.93;2.50;;;10.40;1.00;;;;;;5089726;28;20431;-44
2022/10/03 03:43:17;;;;;;;15.83;2.43;;;10.40;1.00;;;;;;5089713;28;20512;-45
2022/10/03 03:46:05;;;;;;;14.93;1.70;;;10.30;1.00;;;;;;5047501;28;20451;-45
2022/10/03 03:49:12;;;;;;;17.30;2.50;;;10.30;1.00;;;;;;5084313;28;20567;-44
2022/10/03 03:52:07;;;;;;;18.03;2.50;;;10.20;1.00;;;;;;5035445;28;21050;-46
2022/10/03 03:54:43;;;;;;;12.83;2.13;;;10.20;1.00;;;;;;5072968;28;20556;-44
2022/10/03 03:57:34;;;;;;;7.90;1.90;;;10.20;1.00;;;;;;5090049;28;20763;-45
2022/10/03 04:00:19;;;;;;;24.33;2.63;;;10.20;1.00;;;;;;5086403;28;20439;-45
2022/10/03 04:02:54;;;;;;;16.13;2.33;;;10.20;1.00;;;;;;5092806;28;20458;-45
2022/10/03 04:05:48;;;;;;;19.37;2.67;;;10.20;1.00;;;;;;5091571;28;20465;-45
2022/10/03 04:08:33;;;;;;;17.93;2.00;;;10.10;1.00;;;;;;5090612;28;20836;-45
2022/10/03 04:11:17;;;;;;;11.70;1.90;;;10.10;1.00;;;;;;5091047;28;20560;-46
2022/10/03 04:13:57;;;;;;;10.53;1.90;;;10.20;1.00;;;;;;5085974;28;20476;-45
2022/10/03 04:19:53;;;;;;;16.03;2.43;;;10.10;1.00;;;;;;5092015;28;20841;-47
2022/10/03 04:22:42;;;;;;;12.60;2.13;;;10.10;1.00;;;;;;5092023;28;20426;-45
2022/10/03 04:25:32;;;;;;;12.60;2.20;;;10.10;1.00;;;;;;5091483;28;20438;-45
2022/10/03 04:28:25;;;;;;;20.00;2.80;;;10.20;1.00;;;;;;5088803;28;20445;-44
2022/10/03 04:31:02;;;;;;;14.37;2.20;;;10.20;1.00;;;;;;5090445;28;20522;-45
2022/10/03 04:33:43;;;;;;;14.43;2.83;;;10.20;1.00;;;;;;5092323;28;20504;-45
2022/10/03 04:36:40;;;;;;;14.33;2.43;;;10.20;1.00;;;;;;5090244;28;20426;-45
2022/10/03 04:39:11;;;;;;;14.23;2.23;;;10.20;1.00;;;;;;5088079;28;20912;-45
2022/10/03 04:41:57;;;;;;;13.60;2.30;;;10.20;1.00;;;;;;5091022;28;21124;-45
2022/10/03 04:44:30;;;;;;;19.83;3.03;;;10.20;1.00;;;;;;5090469;28;20472;-45
2022/10/03 04:47:20;;;;;;;24.77;2.60;;;10.20;1.00;;;;;;5091199;28;20853;-45
2022/10/03 04:49:55;;;;;;;13.93;2.50;;;10.20;1.00;;;;;;5091987;28;20480;-45
2022/10/03 04:52:26;;;;;;;11.87;3.00;;;10.10;1.00;;;;;;5091800;28;20527;-45
2022/10/03 04:55:32;;;;;;;12.80;2.70;;;10.10;1.00;;;;;;5095998;28;20480;-45
2022/10/03 04:58:33;;;;;;;20.57;3.07;;;10.10;1.00;;;;;;5091602;28;20431;-45
2022/10/03 05:01:05;;;;;;;16.27;2.77;;;10.10;1.00;;;;;;5088145;28;20445;-44
2022/10/03 05:03:43;;;;;;;21.57;2.50;;;10.10;1.00;;;;;;5093651;28;20490;-45
2022/10/03 05:06:27;;;;;;;25.57;2.30;;;10.10;1.00;;;;;;5088724;28;20430;-45
2022/10/03 05:09:14;;;;;;;14.47;3.30;;;10.10;1.00;;;;;;5093461;28;20469;-45
2022/10/03 05:12:05;;;;;;;20.43;2.23;;;10.10;1.00;;;;;;5093383;28;20429;-45
2022/10/03 05:15:04;;;;;;;17.03;2.60;;;10.10;1.00;;;;;;5092863;28;20784;-45
2022/10/03 05:17:57;;;;;;;19.70;3.00;;;10.10;1.00;;;;;;5089531;28;20431;-45
2022/10/03 05:20:51;;;;;;;15.10;3.10;;;10.10;1.00;;;;;;5088654;28;20442;-45
2022/10/03 05:23:30;;;;;;;20.03;2.90;;;10.10;1.00;;;;;;5086544;28;20470;-45
2022/10/03 05:26:31;;;;;;;12.90;2.53;;;10.10;1.00;;;;;;5093001;28;20427;-45
2022/10/03 05:29:16;;;;;;;19.90;2.73;;;10.10;1.00;;;;;;5093728;28;20533;-45
2022/10/03 05:32:06;;;;;;;18.27;2.40;;;10.20;1.00;;;;;;5093257;28;20826;-45
2022/10/03 05:35:05;;;;;;;19.63;2.83;;;10.20;1.00;;;;;;5091072;28;20438;-45
2022/10/03 05:37:57;;;;;;;22.80;2.53;;;10.20;1.00;;;;;;5093446;28;20442;-45
2022/10/03 05:40:29;;;;;;;26.23;3.20;;;10.30;1.00;;;;;;5086517;28;20439;-45
2022/10/03 05:43:17;;;;;;;16.03;2.33;;;10.20;1.00;;;;;;5092524;28;20471;-45
2022/10/03 05:45:59;;;;;;;16.47;2.87;;;10.20;1.00;;;;;;5080021;28;20439;-45
2022/10/03 05:48:39;;;;;;;21.70;2.83;;;10.30;1.00;;;;;;5092344;28;20973;-45
2022/10/03 05:51:14;;;;;;;14.03;2.83;;;10.30;1.00;;;;;;5090262;28;20477;-46
2022/10/03 05:54:01;;;;;;;23.10;4.33;;;10.40;1.00;;;;;;5086406;28;20442;-45
2022/10/03 05:56:59;;;;;;;15.23;3.23;;;10.40;1.00;;;;;;5084009;28;20773;-45
2022/10/03 05:59:50;;;;;;;14.73;2.70;;;10.40;1.00;;;;;;5084992;28;20423;-47
2022/10/03 06:02:56;;;;;;;28.40;3.90;;;10.40;1.00;;;;;;5091773;28;20442;-45
2022/10/03 06:05:55;;;;;;;17.37;2.97;;;10.50;1.00;;;;;;5090945;28;20487;-45
2022/10/03 06:08:59;;;;;;;26.43;3.93;;;10.60;1.00;;;;;;5091660;28;20925;-45
2022/10/03 06:11:57;;;;;;;12.33;2.93;;;10.60;1.00;;;;;;5091802;28;20443;-46
2022/10/03 06:14:43;;;;;;;27.90;3.33;;;10.60;1.00;;;;;;5091074;28;20443;-45
2022/10/03 06:17:34;;;;;;;19.50;3.70;;;10.70;1.00;;;;;;5091486;28;20434;-45
2022/10/03 06:20:21;;;;;;;26.73;4.50;;;10.70;1.00;;;;;;5093557;28;20904;-46
2022/10/03 06:23:24;;;;;;;20.77;3.93;;;10.80;1.00;;;;;;5085846;28;20461;-46
2022/10/03 06:26:23;;;;;;;26.37;3.60;;;10.90;1.00;;;;;;5087093;28;20856;-46
2022/10/03 06:29:06;;;;;;;17.80;3.87;;;11.00;1.00;;;;;;5084128;28;20442;-46
2022/10/03 06:32:08;;;;;;;19.37;3.20;;;11.20;1.00;;;;;;5091066;28;20463;-46
2022/10/03 06:34:49;;;;;;;18.30;3.10;;;11.30;1.00;;;;;;5092806;28;20505;-46
2022/10/03 06:37:52;;;;;;;19.17;3.17;;;11.40;1.00;;;;;;5090600;28;20412;-46
2022/10/03 06:40:34;;;;;;;18.37;3.03;;;11.50;1.00;;;;;;5090467;28;20513;-46
2022/10/03 06:43:28;;;;;;;15.47;3.57;;;11.50;1.00;;;;;;5091904;28;20462;-46
2022/10/03 06:46:03;;;;;;;25.93;3.23;;;11.50;1.00;;;;;;5086469;28;20423;-45
2022/10/03 06:48:53;;;;;;;28.13;2.87;;;11.60;1.00;;;;;;5090952;28;20437;-46
2022/10/03 06:51:27;;;;;;;20.10;3.40;;;11.60;1.00;;;;;;5091664;28;20470;-46
2022/10/03 06:54:11;;;;;;;23.10;4.20;;;11.70;1.00;;;;;;5083927;28;20434;-45
2022/10/03 06:57:14;;;;;;;29.37;3.70;;;11.80;1.00;;;;;;5088716;28;21174;-45
2022/10/03 07:00:16;;;;;;;26.87;4.40;;;11.90;1.00;;;;;;5089910;28;20439;-46
2022/10/03 07:03:00;;;;;;;23.70;2.80;;;12.00;1.00;;;;;;5088728;28;20819;-46
2022/10/03 07:05:40;;;;;;;31.90;3.10;;;12.00;99.90;;;;;;5091314;28;20439;-45
2022/10/03 07:08:17;;;;;;;13.90;2.97;;;12.10;99.90;;;;;;5090971;28;20526;-46
2022/10/03 07:10:52;;;;;;;12.13;2.70;;;12.30;99.90;;;;;;5085851;28;20432;-45
2022/10/03 07:13:18;;;;;;;18.83;3.37;;;12.50;99.90;;;;;;5090836;28;20434;-45
2022/10/03 07:16:08;;;;;;;14.03;2.87;;;12.60;99.90;;;;;;5091448;28;20469;-45
2022/10/03 07:19:01;;;;;;;13.67;2.77;;;12.80;99.90;;;;;;5091514;28;20552;-45
2022/10/03 07:22:02;;;;;;;18.70;2.57;;;13.00;99.90;;;;;;5080595;28;20438;-45
2022/10/03 07:24:58;;;;;;;10.03;1.90;;;13.10;1.00;;;;;;5089203;28;20493;-45
2022/10/03 07:27:44;;;;;;;13.43;2.30;;;13.20;1.00;;;;;;5090518;28;20431;-45
2022/10/03 07:30:16;;;;;;;11.50;2.80;;;13.20;1.00;;;;;;5086769;28;20454;-45
2022/10/03 07:33:33;;;;;;;16.60;2.57;;;13.80;1.00;;;;;;5091168;28;20931;-45
2022/10/03 07:39:41;;;;;;;15.70;2.67;;;14.60;1.00;;;;;;5090766;28;20472;-45
2022/10/03 07:42:32;;;;;;;13.93;1.90;;;15.40;99.90;;;;;;5089985;28;20524;-45
2022/10/03 07:45:06;;;;;;;10.17;1.97;;;16.30;99.90;;;;;;5086158;28;20470;-45
2022/10/03 07:47:54;;;;;;;10.73;2.30;;;17.00;99.90;;;;;;5090266;28;20433;-45
2022/10/03 07:50:23;;;;;;;11.60;2.57;;;17.50;99.90;;;;;;5087734;28;20472;-45
2022/10/03 07:53:10;;;;;;;11.30;1.90;;;17.80;1.00;;;;;;5091073;28;20515;-45
2022/10/03 07:56:06;;;;;;;9.47;1.93;;;17.70;99.90;;;;;;5091167;28;20427;-45
2022/10/03 07:58:57;;;;;;;14.50;1.90;;;17.70;1.00;;;;;;5071410;28;20431;-45
2022/10/03 08:01:34;;;;;;;12.00;2.40;;;18.20;1.00;;;;;;5082251;28;20527;-45
2022/10/03 08:04:33;;;;;;;8.50;1.83;;;18.70;1.00;;;;;;5091458;28;20478;-44
2022/10/03 08:07:37;;;;;;;9.70;1.70;;;19.00;1.00;;;;;;5091037;28;20445;-45
2022/10/03 08:10:41;;;;;;;10.17;2.27;;;19.20;1.00;;;;;;4987314;28;20445;-45
2022/10/03 08:13:29;;;;;;;7.87;1.60;;;19.40;1.00;;;;;;5083843;28;20941;-45
2022/10/03 08:16:11;;;;;;;9.70;2.10;;;19.80;1.00;;;;;;5082471;28;20460;-44
2022/10/03 08:18:48;;;;;;;10.13;2.23;;;20.10;1.00;;;;;;5090982;28;20431;-45
2022/10/03 08:21:52;;;;;;;9.33;2.07;;;20.30;1.00;;;;;;5089681;28;20434;-45
2022/10/03 08:24:44;;;;;;;10.40;2.37;;;20.40;1.00;;;;;;5060495;28;20587;-45
2022/10/03 08:27:25;;;;;;;13.43;2.20;;;20.10;1.00;;;;;;5084994;28;20435;-45
2022/10/03 08:30:09;;;;;;;9.80;2.30;;;19.80;1.00;;;;;;5089945;28;20473;-45
2022/10/03 08:32:57;;;;;;;7.27;1.77;;;19.80;1.00;;;;;;5087787;28;20477;-46
2022/10/03 08:35:29;;;;;;;11.40;2.17;;;20.00;1.00;;;;;;5088456;28;20457;-45
2022/10/03 08:38:11;;;;;;;9.60;2.60;;;20.20;1.00;;;;;;5090132;28;20518;-45
2022/10/03 08:41:05;;;;;;;8.13;2.30;;;19.90;1.00;;;;;;5091116;28;20587;-45
2022/10/03 08:43:42;;;;;;;7.60;1.70;;;19.70;1.00;;;;;;5089143;28;20980;-45
2022/10/03 08:46:38;;;;;;;18.10;2.87;;;19.20;1.00;;;;;;5083072;28;20419;-45
2022/10/03 08:49:35;;;;;;;12.63;2.37;;;18.20;1.00;;;;;;5089840;28;20451;-45
2022/10/03 08:52:22;;;;;;;10.70;2.20;;;17.40;1.00;;;;;;5088046;28;20528;-45
2022/10/03 08:55:15;;;;;;;11.80;2.30;;;17.00;1.00;;;;;;5090221;28;20972;-46
2022/10/03 08:58:01;;;;;;;12.70;1.90;;;16.90;1.00;;;;;;5084461;28;20769;-45
2022/10/03 09:00:58;;;;;;;10.33;2.33;;;16.80;1.00;;;;;;5083482;28;20457;-45
2022/10/03 09:03:43;;;;;;;12.93;2.10;;;16.50;1.00;;;;;;5089824;28;20979;-45
2022/10/03 09:06:23;;;;;;;12.87;2.60;;;16.20;1.00;;;;;;5087945;28;20431;-46
2022/10/03 09:09:26;;;;;;;15.03;2.57;;;16.00;1.00;;;;;;5068973;28;20811;-45
2022/10/03 09:12:12;;;;;;;11.90;2.20;;;15.80;1.00;;;;;;5086484;28;20439;-45
2022/10/03 09:14:43;;;;;;;13.20;2.00;;;15.80;1.50;;;;;;5081144;28;20460;-45
2022/10/03 09:17:27;;;;;;;11.87;2.00;;;15.90;1.00;;;;;;5081129;28;20431;-45
2022/10/03 09:20:12;;;;;;;27.63;3.47;;;15.90;1.00;;;;;;5087764;28;20435;-45
2022/10/03 09:23:23;;;;;;;15.20;2.40;;;15.80;1.00;;;;;;5082667;28;20426;-45
2022/10/03 09:26:07;;;;;;;10.03;2.07;;;15.80;27.80;;;;;;5038392;28;20444;-45
2022/10/03 09:28:49;;;;;;;11.83;2.40;;;16.00;24.40;;;;;;5037454;28;20576;-45
2022/10/03 09:31:43;;;;;;;14.47;2.50;;;16.30;29.90;;;;;;5074669;28;20442;-45
2022/10/03 09:34:28;;;;;;;12.27;2.33;;;16.60;1.00;;;;;;5088378;28;20522;-45
2022/10/03 09:37:32;;;;;;;8.17;2.00;;;16.80;1.00;;;;;;5087161;28;20511;-46
2022/10/03 09:40:31;;;;;;;9.43;1.97;;;16.70;1.00;;;;;;5086186;28;20441;-45
2022/10/03 09:43:17;;;;;;;18.37;2.77;;;16.50;1.00;;;;;;5092507;28;20469;-45
2022/10/03 09:46:01;;;;;;;10.03;2.43;;;16.20;1.00;;;;;;5089765;28;20423;-44
2022/10/03 09:48:54;;;;;;;9.10;1.80;;;16.20;1.00;;;;;;5088644;28;20431;-45
2022/10/03 09:51:32;;;;;;;15.33;2.17;;;16.30;1.00;;;;;;5080464;28;20474;-45
2022/10/03 09:54:18;;;;;;;13.00;2.13;;;16.50;1.00;;;;;;5085694;28;20447;-45
2022/10/03 09:57:09;;;;;;;14.93;2.10;;;16.70;1.00;;;;;;5080672;28;20438;-45
2022/10/03 09:59:55;;;;;;;15.43;3.07;;;16.70;1.00;;;;;;5084267;28;20462;-45
2022/10/03 10:02:45;;;;;;;12.03;1.97;;;16.60;1.00;;;;;;5092207;28;20419;-45
2022/10/03 10:05:48;;;;;;;7.13;1.87;;;16.60;1.00;;;;;;5093283;28;20488;-49
2022/10/03 10:08:33;;;;;;;8.30;2.10;;;16.50;1.00;;;;;;5073689;28;20407;-49
2022/10/03 10:11:04;;;;;;;4.67;1.50;;;16.80;1.00;;;;;;5091426;28;20515;-49
2022/10/03 10:14:07;;;;;;;15.37;2.33;;;17.10;1.00;;;;;;5094553;28;20411;-49
2022/10/03 10:17:01;;;;;;;8.77;2.37;;;17.20;1.00;;;;;;5075148;28;20520;-49
2022/10/03 10:19:26;;;;;;;12.57;2.57;;;17.30;1.00;;;;;;5093944;28;20425;-49
2022/10/03 10:22:13;;;;;;;11.37;1.97;;;17.10;1.00;;;;;;5091748;28;20415;-49
2022/10/03 10:25:04;;;;;;;14.23;2.00;;;16.80;1.00;;;;;;5072890;28;20744;-48
2022/10/03 10:28:06;;;;;;;10.67;1.90;;;16.60;1.00;;;;;;5076014;28;20453;-48
2022/10/03 10:30:57;;;;;;;9.27;2.07;;;16.60;1.00;;;;;;5092379;28;20461;-50
2022/10/03 10:33:41;;;;;;;10.70;2.00;;;17.20;1.00;;;;;;5089343;28;20435;-49
2022/10/03 10:36:42;;;;;;;10.27;1.80;;;18.20;1.00;;;;;;5086568;28;20474;-49
2022/10/03 10:39:21;;;;;;;8.17;1.60;;;19.40;1.00;;;;;;5090546;28;20442;-49
2022/10/03 10:41:55;;;;;;;5.60;1.70;;;20.20;1.00;;;;;;5075252;28;20508;-49
2022/10/03 10:44:50;;;;;;;4.33;1.53;;;21.30;1.00;;;;;;5091181;28;20481;-50
2022/10/03 10:47:38;;;;;;;6.50;1.50;;;22.00;1.00;;;;;;5070960;28;20419;-50
2022/10/03 10:50:42;;;;;;;5.20;1.40;;;22.20;1.00;;;;;;5083351;28;20435;-49
2022/10/03 10:53:46;;;;;;;7.87;1.80;;;22.50;1.00;;;;;;5052584;28;20481;-50
2022/10/03 10:56:25;;;;;;;8.13;2.23;;;22.40;1.00;;;;;;5096342;28;20473;-50
2022/10/03 10:58:56;;;;;;;9.03;1.50;;;21.50;1.00;;;;;;5093560;28;20419;-49
2022/10/03 11:01:40;;;;;;;7.53;1.60;;;20.60;1.00;;;;;;5093420;28;20401;-50
2022/10/03 11:04:44;;;;;;;4.73;1.60;;;19.70;1.00;;;;;;5091554;28;20520;-50
2022/10/03 11:07:47;;;;;;;9.60;2.60;;;18.60;1.00;;;;;;5084941;28;20453;-49
2022/10/03 11:10:51;;;;;;;6.70;1.53;;;18.00;1.00;;;;;;5092790;28;20446;-49
2022/10/03 11:13:19;;;;;;;13.70;1.87;;;17.70;1.00;;;;;;5025646;28;20458;-49
2022/10/03 11:15:54;;;;;;;4.47;1.77;;;17.20;1.00;;;;;;5092690;28;20474;-49
2022/10/03 11:18:43;;;;;;;9.03;1.83;;;16.80;1.00;;;;;;5093402;28;20910;-50
2022/10/03 11:21:15;;;;;;;13.33;1.67;;;16.60;1.00;;;;;;5093514;28;20439;-49
2022/10/03 11:23:59;;;;;;;9.13;2.07;;;16.40;1.00;;;;;;5088478;28;20471;-49
2022/10/03 11:26:56;;;;;;;9.00;1.83;;;16.30;1.00;;;;;;5092457;28;20446;-49
2022/10/03 11:29:46;;;;;;;7.10;1.30;;;16.30;1.00;;;;;;5073172;28;20565;-49
2022/10/03 11:32:27;;;;;;;11.40;1.90;;;16.20;1.00;;;;;;5090739;28;20434;-49
2022/10/03 11:35:41;;;;;;;8.10;1.80;;;16.20;1.00;;;;;;5073548;28;20944;-49
2022/10/03 11:38:20;;;;;;;7.80;2.10;;;16.20;1.00;;;;;;5091607;28;20500;-49
2022/10/03 11:41:38;;;;;;;9.20;2.20;;;16.00;45.70;;;;;;5089062;28;20427;-50
2022/10/03 11:44:41;;;;;;;8.30;1.87;;;15.90;99.90;;;;;;5030393;28;20465;-49
2022/10/03 11:47:33;;;;;;;10.10;1.80;;;15.70;1.00;;;;;;5012536;28;20941;-49
2022/10/03 11:50:26;;;;;;;7.57;1.90;;;15.80;1.00;;;;;;5091861;28;20442;-49
2022/10/03 11:53:19;;;;;;;6.00;1.63;;;16.00;1.00;;;;;;5091386;28;20995;-50
2022/10/03 11:55:50;;;;;;;6.50;1.53;;;16.20;1.00;;;;;;5091718;28;21235;-49
2022/10/03 11:58:34;;;;;;;7.90;2.00;;;16.30;99.90;;;;;;5089660;28;20454;-49
2022/10/03 12:01:17;;;;;;;7.30;1.50;;;16.20;99.90;;;;;;5087799;28;20443;-50
2022/10/03 12:04:37;;;;;;;12.67;2.00;;;16.10;99.90;;;;;;5088193;28;20470;-49
2022/10/03 12:10:56;;;;;;;9.30;1.73;;;16.00;99.90;;;;;;5087439;28;20434;-46
2022/10/03 12:13:34;;;;;;;10.87;2.13;;;15.90;99.90;;;;;;5006401;28;20442;-46
2022/10/03 12:16:01;;;;;;;6.40;1.80;;;15.90;1.00;;;;;;5079580;28;20465;-46
2022/10/03 12:18:41;;;;;;;17.40;2.90;;;15.80;1.00;;;;;;5086153;28;20442;-46
2022/10/03 12:21:11;;;;;;;8.90;1.80;;;15.90;99.90;;;;;;5087722;28;20435;-46
2022/10/03 12:23:40;;;;;;;7.57;2.07;;;15.90;99.90;;;;;;5089197;28;20466;-46
2022/10/03 12:26:13;;;;;;;14.07;2.60;;;15.90;99.90;;;;;;5087129;28;20500;-46
2022/10/03 12:28:44;;;;;;;10.23;2.70;;;15.80;99.90;;;;;;5089403;28;20500;-46
2022/10/03 12:31:13;;;;;;;9.77;2.07;;;15.80;99.90;;;;;;5088680;28;20439;-45
2022/10/03 12:34:01;;;;;;;12.50;2.03;;;15.90;99.90;;;;;;5089584;28;20839;-47
2022/10/03 12:36:45;;;;;;;11.03;1.97;;;16.00;99.90;;;;;;5088910;28;20938;-45
2022/10/03 12:39:12;;;;;;;10.60;2.17;;;16.20;1.00;;;;;;5084738;28;20445;-46
2022/10/03 12:41:54;;;;;;;6.23;1.80;;;16.30;1.00;;;;;;5089705;28;20442;-46
2022/10/03 12:44:50;;;;;;;13.47;2.23;;;16.60;1.00;;;;;;5085528;28;20467;-46
2022/10/03 12:47:36;;;;;;;13.77;2.10;;;16.60;99.90;;;;;;5090767;28;20897;-45
2022/10/03 12:50:21;;;;;;;9.53;1.87;;;16.80;99.90;;;;;;5090047;28;20462;-46
2022/10/03 12:53:13;;;;;;;13.50;2.73;;;16.70;99.90;;;;;;5087570;28;20539;-46
2022/10/03 12:55:53;;;;;;;8.50;2.40;;;16.70;99.90;;;;;;5090219;28;20822;-45
2022/10/03 12:58:49;;;;;;;11.23;2.53;;;16.40;99.90;;;;;;5089528;28;21007;-44
2022/10/03 13:01:37;;;;;;;9.40;1.97;;;16.30;99.90;;;;;;5081368;28;20477;-45
2022/10/03 13:04:21;;;;;;;14.00;2.03;;;16.20;99.90;;;;;;5089211;28;20470;-46
2022/10/03 13:07:14;;;;;;;15.03;2.23;;;16.20;99.90;;;;;;5090432;28;20950;-46
2022/10/03 13:10:03;;;;;;;14.93;2.50;;;16.30;99.90;;;;;;5072938;28;20435;-45
2022/10/03 13:12:35;;;;;;;11.60;2.57;;;16.40;99.90;;;;;;5087119;28;20438;-45
2022/10/03 13:15:38;;;;;;;6.77;1.80;;;16.70;57.50;;;;;;5093845;28;20426;-46
2022/10/03 13:18:27;;;;;;;6.80;1.73;;;17.80;1.00;;;;;;5089803;28;20545;-47
2022/10/03 13:21:08;;;;;;;13.10;2.40;;;18.10;1.00;;;;;;5086328;28;20446;-45
2022/10/03 13:23:51;;;;;;;6.43;2.10;;;17.90;1.00;;;;;;5092998;28;20470;-46
2022/10/03 13:26:36;;;;;;;7.33;2.33;;;17.70;1.00;;;;;;5092319;28;20492;-45
2022/10/03 13:29:19;;;;;;;17.30;2.10;;;17.50;1.00;;;;;;5092173;28;20981;-45
2022/10/03 13:32:08;;;;;;;11.20;2.37;;;17.10;1.00;;;;;;5094090;28;20450;-46
2022/10/03 13:38:06;;;;;;;8.17;1.70;;;16.90;1.00;;;;;;5091951;28;20449;-46
2022/10/03 13:40:36;;;;;;;10.07;2.50;;;17.00;1.00;;;;;;5093509;28;20450;-46
2022/10/03 13:43:10;;;;;;;8.53;1.97;;;17.20;1.00;;;;;;5092236;28;20466;-46
2022/10/03 13:45:43;;;;;;;11.07;2.10;;;17.30;1.00;;;;;;5091584;28;20521;-46
2022/10/03 13:48:15;;;;;;;14.87;2.67;;;17.10;1.00;;;;;;5093626;28;20430;-45
2022/10/03 13:51:13;;;;;;;9.33;2.00;;;17.20;1.00;;;;;;5092558;28;20447;-46
2022/10/03 13:53:55;;;;;;;12.80;2.53;;;17.50;1.00;;;;;;5083683;28;20451;-46
2022/10/03 13:56:36;;;;;;;9.87;2.33;;;17.50;1.00;;;;;;5092380;28;20791;-46
2022/10/03 13:59:04;;;;;;;9.77;2.63;;;17.40;1.00;;;;;;5092737;28;20462;-46
2022/10/03 14:01:40;;;;;;;8.77;2.40;;;17.70;1.00;;;;;;5092608;28;20434;-45
2022/10/03 14:04:43;;;;;;;11.27;1.97;;;18.10;1.00;;;;;;5092209;28;21034;-45
2022/10/03 14:07:32;;;;;;;12.60;2.47;;;18.20;1.00;;;;;;5092769;28;21227;-44
2022/10/03 14:10:15;;;;;;;9.90;1.93;;;18.20;1.00;;;;;;5092482;28;20473;-45
2022/10/03 14:13:05;;;;;;;3.87;1.50;;;17.70;1.00;;;;;;5091677;28;20905;-45
2022/10/03 14:15:57;;;;;;;13.30;1.80;;;17.50;1.00;;;;;;5091780;28;20438;-46
2022/10/03 14:18:34;;;;;;;7.10;1.80;;;17.10;1.00;;;;;;5071986;28;20991;-46
2022/10/03 14:21:29;;;;;;;7.80;1.90;;;16.70;1.00;;;;;;5090378;28;20932;-46
2022/10/03 14:24:01;;;;;;;10.10;1.67;;;16.40;1.00;;;;;;5092533;28;20937;-45
2022/10/03 14:26:48;;;;;;;10.30;2.33;;;16.10;1.00;;;;;;5090740;28;20496;-46
2022/10/03 14:29:32;;;;;;;10.43;2.37;;;15.90;1.00;;;;;;5092573;28;20458;-45
2022/10/03 14:32:16;;;;;;;11.60;2.60;;;15.70;99.90;;;;;;5092169;28;20488;-45
2022/10/03 14:34:54;;;;;;;11.53;2.67;;;15.70;99.90;;;;;;5091396;28;20499;-45
2022/10/03 14:37:38;;;;;;;16.20;2.83;;;15.70;99.90;;;;;;5080625;28;20437;-45
2022/10/03 14:40:21;;;;;;;8.67;1.93;;;15.80;99.90;;;;;;5090861;28;20434;-45
2022/10/03 14:42:51;;;;;;;9.70;2.23;;;16.00;1.00;;;;;;5091842;28;20811;-45
2022/10/03 14:45:22;;;;;;;6.20;1.93;;;16.10;99.90;;;;;;5091593;28;20496;-45